sensor_id;sensor_type;location;lat;lon;timestamp;pressure;altitude;pressure_sealevel;temperature;humidity
163;BME280;3946;48.958;8.284;2023-05-20T00:01:23;100587.97;;;13.70;84.71
163;BME280;3946;48.958;8.284;2023-05-20T00:04:08;100579.34;;;13.69;85.29
163;BME280;3946;48.958;8.284;2023-05-20T00:06:55;100579.63;;;13.77;84.65
163;BME280;3946;48.958;8.284;2023-05-20T00:09:39;100584.13;;;13.86;84.46
163;BME280;3946;48.958;8.284;2023-05-20T00:12:25;100576.94;;;13.66;84.86
163;BME280;3946;48.958;8.284;2023-05-20T00:15:10;100584.72;;;13.55;85.64
163;BME280;3946;48.958;8.284;2023-05-20T00:17:55;100587.09;;;13.58;85.44
163;BME280;3946;48.958;8.284;2023-05-20T00:20:41;100577.41;;;13.60;85.46
163;BME280;3946;48.958;8.284;2023-05-20T00:23:27;100580.66;;;13.75;83.66
163;BME280;3946;48.958;8.284;2023-05-20T00:26:12;100578.78;;;13.77;83.19
163;BME280;3946;48.958;8.284;2023-05-20T00:28:58;100565.78;;;13.88;81.76
163;BME280;3946;48.958;8.284;2023-05-20T00:31:44;100564.53;;;13.93;80.22
163;BME280;3946;48.958;8.284;2023-05-20T00:34:41;100556.94;;;13.90;80.22
163;BME280;3946;48.958;8.284;2023-05-20T00:37:26;100549.41;;;14.10;79.03
163;BME280;3946;48.958;8.284;2023-05-20T00:40:13;100545.38;;;14.17;78.14
163;BME280;3946;48.958;8.284;2023-05-20T00:43:02;100514.13;;;14.28;75.10
163;BME280;3946;48.958;8.284;2023-05-20T00:45:47;100508.00;;;14.40;74.51
163;BME280;3946;48.958;8.284;2023-05-20T00:48:35;100519.56;;;14.36;74.65
163;BME280;3946;48.958;8.284;2023-05-20T00:51:23;100524.00;;;14.47;74.04
163;BME280;3946;48.958;8.284;2023-05-20T00:54:08;100526.97;;;14.42;74.56
163;BME280;3946;48.958;8.284;2023-05-20T00:56:55;100527.69;;;14.44;74.11
163;BME280;3946;48.958;8.284;2023-05-20T00:59:40;100524.34;;;14.53;74.15
163;BME280;3946;48.958;8.284;2023-05-20T01:02:25;100519.50;;;14.60;73.76
163;BME280;3946;48.958;8.284;2023-05-20T01:05:11;100529.09;;;14.59;73.97
163;BME280;3946;48.958;8.284;2023-05-20T01:07:56;100531.34;;;14.64;73.96
163;BME280;3946;48.958;8.284;2023-05-20T01:10:42;100529.31;;;14.67;73.84
163;BME280;3946;48.958;8.284;2023-05-20T01:13:32;100535.28;;;14.58;74.42
163;BME280;3946;48.958;8.284;2023-05-20T01:16:19;100528.38;;;14.68;74.04
163;BME280;3946;48.958;8.284;2023-05-20T01:19:16;100541.44;;;14.57;75.34
163;BME280;3946;48.958;8.284;2023-05-20T01:22:05;100534.31;;;14.59;75.05
163;BME280;3946;48.958;8.284;2023-05-20T01:24:52;100536.31;;;14.67;74.68
163;BME280;3946;48.958;8.284;2023-05-20T01:27:37;100535.38;;;14.68;74.48
163;BME280;3946;48.958;8.284;2023-05-20T01:30:24;100539.88;;;14.66;74.81
163;BME280;3946;48.958;8.284;2023-05-20T01:33:11;100540.72;;;14.66;75.15
163;BME280;3946;48.958;8.284;2023-05-20T01:35:56;100542.97;;;14.60;75.20
163;BME280;3946;48.958;8.284;2023-05-20T01:38:41;100541.19;;;14.60;75.72
163;BME280;3946;48.958;8.284;2023-05-20T01:41:28;100542.72;;;14.52;75.78
163;BME280;3946;48.958;8.284;2023-05-20T01:44:13;100549.13;;;14.59;75.79
163;BME280;3946;48.958;8.284;2023-05-20T01:46:58;100544.97;;;14.56;75.87
163;BME280;3946;48.958;8.284;2023-05-20T01:49:44;100536.94;;;14.59;76.21
163;BME280;3946;48.958;8.284;2023-05-20T01:52:32;100526.91;;;14.31;76.37
163;BME280;3946;48.958;8.284;2023-05-20T01:55:17;100539.28;;;14.40;76.89
163;BME280;3946;48.958;8.284;2023-05-20T01:58:03;100535.63;;;14.43;77.04
163;BME280;3946;48.958;8.284;2023-05-20T02:00:48;100538.22;;;14.43;76.92
163;BME280;3946;48.958;8.284;2023-05-20T02:03:34;100537.50;;;14.41;77.24
163;BME280;3946;48.958;8.284;2023-05-20T02:06:19;100537.94;;;14.34;77.53
163;BME280;3946;48.958;8.284;2023-05-20T02:09:05;100532.50;;;14.38;77.21
163;BME280;3946;48.958;8.284;2023-05-20T02:11:50;100524.91;;;14.23;77.72
163;BME280;3946;48.958;8.284;2023-05-20T02:14:36;100530.09;;;14.12;78.88
163;BME280;3946;48.958;8.284;2023-05-20T02:17:21;100527.03;;;14.18;78.43
163;BME280;3946;48.958;8.284;2023-05-20T02:20:06;100523.41;;;13.97;79.09
163;BME280;3946;48.958;8.284;2023-05-20T02:22:52;100511.47;;;13.94;79.04
163;BME280;3946;48.958;8.284;2023-05-20T02:25:37;100519.03;;;13.97;79.13
163;BME280;3946;48.958;8.284;2023-05-20T02:28:22;100507.34;;;14.03;78.50
163;BME280;3946;48.958;8.284;2023-05-20T02:31:08;100515.75;;;13.95;79.29
163;BME280;3946;48.958;8.284;2023-05-20T02:33:53;100515.84;;;13.94;79.51
163;BME280;3946;48.958;8.284;2023-05-20T02:36:38;100510.75;;;13.92;79.54
163;BME280;3946;48.958;8.284;2023-05-20T02:39:24;100511.53;;;13.82;79.83
163;BME280;3946;48.958;8.284;2023-05-20T02:42:09;100508.00;;;13.83;79.88
163;BME280;3946;48.958;8.284;2023-05-20T02:44:55;100513.69;;;13.77;80.10
163;BME280;3946;48.958;8.284;2023-05-20T02:47:43;100510.19;;;13.65;80.76
163;BME280;3946;48.958;8.284;2023-05-20T02:50:28;100509.59;;;13.61;81.09
163;BME280;3946;48.958;8.284;2023-05-20T02:53:13;100510.47;;;13.49;81.40
163;BME280;3946;48.958;8.284;2023-05-20T02:55:58;100509.00;;;13.58;81.75
163;BME280;3946;48.958;8.284;2023-05-20T02:58:44;100518.91;;;13.53;81.76
163;BME280;3946;48.958;8.284;2023-05-20T03:01:28;100514.75;;;13.50;81.72
163;BME280;3946;48.958;8.284;2023-05-20T03:04:15;100523.84;;;13.45;81.38
163;BME280;3946;48.958;8.284;2023-05-20T03:07:02;100521.69;;;13.39;81.42
163;BME280;3946;48.958;8.284;2023-05-20T03:09:47;100526.16;;;13.37;81.53
163;BME280;3946;48.958;8.284;2023-05-20T03:12:32;100526.91;;;13.39;81.48
163;BME280;3946;48.958;8.284;2023-05-20T03:15:16;100526.16;;;13.37;81.37
163;BME280;3946;48.958;8.284;2023-05-20T03:18:02;100524.69;;;13.21;81.08
163;BME280;3946;48.958;8.284;2023-05-20T03:20:48;100528.13;;;13.22;80.61
163;BME280;3946;48.958;8.284;2023-05-20T03:23:33;100525.63;;;13.20;80.73
163;BME280;3946;48.958;8.284;2023-05-20T03:26:19;100520.31;;;13.22;80.69
163;BME280;3946;48.958;8.284;2023-05-20T03:29:05;100522.94;;;13.09;80.80
163;BME280;3946;48.958;8.284;2023-05-20T03:31:50;100523.34;;;13.16;80.49
163;BME280;3946;48.958;8.284;2023-05-20T03:34:36;100525.44;;;13.11;80.45
163;BME280;3946;48.958;8.284;2023-05-20T03:37:22;100533.53;;;13.06;81.01
163;BME280;3946;48.958;8.284;2023-05-20T03:40:08;100529.50;;;13.02;80.73
163;BME280;3946;48.958;8.284;2023-05-20T03:42:54;100539.22;;;12.87;81.92
163;BME280;3946;48.958;8.284;2023-05-20T03:45:41;100531.06;;;13.05;81.43
163;BME280;3946;48.958;8.284;2023-05-20T03:48:26;100532.97;;;12.90;82.36
163;BME280;3946;48.958;8.284;2023-05-20T03:51:11;100538.94;;;12.79;82.31
163;BME280;3946;48.958;8.284;2023-05-20T03:53:58;100540.91;;;12.76;82.68
163;BME280;3946;48.958;8.284;2023-05-20T03:56:44;100547.63;;;12.91;82.54
163;BME280;3946;48.958;8.284;2023-05-20T03:59:30;100544.25;;;12.65;83.17
163;BME280;3946;48.958;8.284;2023-05-20T04:02:15;100546.72;;;12.67;83.79
163;BME280;3946;48.958;8.284;2023-05-20T04:05:00;100552.75;;;12.67;84.01
163;BME280;3946;48.958;8.284;2023-05-20T04:07:46;100551.00;;;12.80;83.10
163;BME280;3946;48.958;8.284;2023-05-20T04:10:33;100550.47;;;12.75;83.15
163;BME280;3946;48.958;8.284;2023-05-20T04:13:18;100540.09;;;12.99;82.03
163;BME280;3946;48.958;8.284;2023-05-20T04:16:04;100519.88;;;12.91;81.99
163;BME280;3946;48.958;8.284;2023-05-20T04:18:50;100537.19;;;13.04;81.67
163;BME280;3946;48.958;8.284;2023-05-20T04:21:36;100530.16;;;12.93;81.40
163;BME280;3946;48.958;8.284;2023-05-20T04:24:22;100535.03;;;12.98;81.23
163;BME280;3946;48.958;8.284;2023-05-20T04:27:09;100539.84;;;12.91;81.47
163;BME280;3946;48.958;8.284;2023-05-20T04:29:55;100537.75;;;12.96;81.31
163;BME280;3946;48.958;8.284;2023-05-20T04:32:43;100532.31;;;12.99;81.58
163;BME280;3946;48.958;8.284;2023-05-20T04:35:28;100539.78;;;13.04;81.67
163;BME280;3946;48.958;8.284;2023-05-20T04:38:17;100533.97;;;13.00;81.71
163;BME280;3946;48.958;8.284;2023-05-20T04:41:02;100541.47;;;13.05;81.44
163;BME280;3946;48.958;8.284;2023-05-20T04:43:48;100544.69;;;13.08;81.22
163;BME280;3946;48.958;8.284;2023-05-20T04:46:34;100542.69;;;13.24;80.88
163;BME280;3946;48.958;8.284;2023-05-20T04:49:19;100541.34;;;13.19;81.06
163;BME280;3946;48.958;8.284;2023-05-20T04:52:04;100539.97;;;13.26;80.87
163;BME280;3946;48.958;8.284;2023-05-20T04:54:49;100541.22;;;13.20;80.72
163;BME280;3946;48.958;8.284;2023-05-20T04:57:34;100532.38;;;13.23;81.14
163;BME280;3946;48.958;8.284;2023-05-20T05:00:23;100527.38;;;13.20;80.86
163;BME280;3946;48.958;8.284;2023-05-20T05:03:08;100531.47;;;13.35;80.93
163;BME280;3946;48.958;8.284;2023-05-20T05:05:55;100524.34;;;13.50;80.97
163;BME280;3946;48.958;8.284;2023-05-20T05:08:41;100515.28;;;13.66;80.24
163;BME280;3946;48.958;8.284;2023-05-20T05:11:26;100515.56;;;13.75;79.76
163;BME280;3946;48.958;8.284;2023-05-20T05:14:11;100505.47;;;13.70;79.62
163;BME280;3946;48.958;8.284;2023-05-20T05:16:59;100517.47;;;13.84;79.85
163;BME280;3946;48.958;8.284;2023-05-20T05:19:44;100505.28;;;13.84;79.29
163;BME280;3946;48.958;8.284;2023-05-20T05:22:29;100495.38;;;14.00;78.98
163;BME280;3946;48.958;8.284;2023-05-20T05:25:14;100476.34;;;14.67;76.99
163;BME280;3946;48.958;8.284;2023-05-20T05:27:59;100465.59;;;15.03;75.38
163;BME280;3946;48.958;8.284;2023-05-20T05:30:44;100453.31;;;15.15;74.74
163;BME280;3946;48.958;8.284;2023-05-20T05:33:30;100471.22;;;14.88;75.90
163;BME280;3946;48.958;8.284;2023-05-20T05:36:15;100466.81;;;14.88;76.04
163;BME280;3946;48.958;8.284;2023-05-20T05:39:01;100481.91;;;14.62;76.14
163;BME280;3946;48.958;8.284;2023-05-20T05:41:46;100480.00;;;14.64;76.19
163;BME280;3946;48.958;8.284;2023-05-20T05:44:32;100477.03;;;14.69;76.61
163;BME280;3946;48.958;8.284;2023-05-20T05:47:17;100477.00;;;14.91;76.74
163;BME280;3946;48.958;8.284;2023-05-20T05:50:05;100452.59;;;15.56;74.36
163;BME280;3946;48.958;8.284;2023-05-20T05:52:52;100469.50;;;15.30;74.83
163;BME280;3946;48.958;8.284;2023-05-20T05:55:38;100489.06;;;15.03;75.86
163;BME280;3946;48.958;8.284;2023-05-20T05:58:23;100484.44;;;15.07;75.86
163;BME280;3946;48.958;8.284;2023-05-20T06:01:09;100486.50;;;14.92;76.30
163;BME280;3946;48.958;8.284;2023-05-20T06:03:54;100490.50;;;14.96;77.48
163;BME280;3946;48.958;8.284;2023-05-20T06:06:41;100484.44;;;14.96;77.31
163;BME280;3946;48.958;8.284;2023-05-20T06:09:26;100484.84;;;14.91;77.34
163;BME280;3946;48.958;8.284;2023-05-20T06:12:11;100498.00;;;14.90;77.67
163;BME280;3946;48.958;8.284;2023-05-20T06:14:56;100487.56;;;14.90;77.23
163;BME280;3946;48.958;8.284;2023-05-20T06:17:41;100493.00;;;14.98;77.33
163;BME280;3946;48.958;8.284;2023-05-20T06:20:26;100489.56;;;14.97;77.84
163;BME280;3946;48.958;8.284;2023-05-20T06:23:15;100488.00;;;15.06;77.33
163;BME280;3946;48.958;8.284;2023-05-20T06:26:10;100482.66;;;15.08;77.01
163;BME280;3946;48.958;8.284;2023-05-20T06:28:56;100474.84;;;14.96;77.26
163;BME280;3946;48.958;8.284;2023-05-20T06:31:40;100471.13;;;15.10;76.65
163;BME280;3946;48.958;8.284;2023-05-20T06:34:25;100483.44;;;15.19;77.42
163;BME280;3946;48.958;8.284;2023-05-20T06:37:10;100464.81;;;15.24;76.94
163;BME280;3946;48.958;8.284;2023-05-20T06:39:57;100463.75;;;15.47;77.09
163;BME280;3946;48.958;8.284;2023-05-20T06:42:42;100461.06;;;15.37;76.30
163;BME280;3946;48.958;8.284;2023-05-20T06:45:27;100445.84;;;15.74;75.98
163;BME280;3946;48.958;8.284;2023-05-20T06:48:19;100440.03;;;15.71;75.52
163;BME280;3946;48.958;8.284;2023-05-20T06:51:06;100445.66;;;15.97;75.15
163;BME280;3946;48.958;8.284;2023-05-20T06:53:51;100444.59;;;15.99;74.61
163;BME280;3946;48.958;8.284;2023-05-20T06:56:39;100441.44;;;16.36;74.19
163;BME280;3946;48.958;8.284;2023-05-20T06:59:24;100434.75;;;16.53;73.14
163;BME280;3946;48.958;8.284;2023-05-20T07:02:10;100417.06;;;17.24;71.60
163;BME280;3946;48.958;8.284;2023-05-20T07:04:55;100391.78;;;17.71;70.32
163;BME280;3946;48.958;8.284;2023-05-20T07:07:40;100384.53;;;18.02;69.52
163;BME280;3946;48.958;8.284;2023-05-20T07:10:26;100385.78;;;17.88;69.29
163;BME280;3946;48.958;8.284;2023-05-20T07:13:12;100392.81;;;17.97;69.27
163;BME280;3946;48.958;8.284;2023-05-20T07:15:58;100402.25;;;17.80;69.87
163;BME280;3946;48.958;8.284;2023-05-20T07:18:44;100394.63;;;17.87;69.90
163;BME280;3946;48.958;8.284;2023-05-20T07:21:29;100387.16;;;17.92;69.57
163;BME280;3946;48.958;8.284;2023-05-20T07:24:34;100375.56;;;17.95;69.38
163;BME280;3946;48.958;8.284;2023-05-20T07:27:21;100402.06;;;17.92;70.85
163;BME280;3946;48.958;8.284;2023-05-20T07:30:08;100363.50;;;18.11;68.84
163;BME280;3946;48.958;8.284;2023-05-20T07:32:54;100368.53;;;18.50;69.09
163;BME280;3946;48.958;8.284;2023-05-20T07:35:39;100382.69;;;18.12;69.51
163;BME280;3946;48.958;8.284;2023-05-20T07:38:24;100410.00;;;17.63;71.31
163;BME280;3946;48.958;8.284;2023-05-20T07:41:16;100390.72;;;17.64;71.13
163;BME280;3946;48.958;8.284;2023-05-20T07:44:01;100384.41;;;17.94;70.27
163;BME280;3946;48.958;8.284;2023-05-20T07:46:48;100399.38;;;17.55;71.67
163;BME280;3946;48.958;8.284;2023-05-20T07:49:33;100402.16;;;17.53;72.04
163;BME280;3946;48.958;8.284;2023-05-20T07:52:18;100394.56;;;17.60;71.94
163;BME280;3946;48.958;8.284;2023-05-20T07:55:04;100380.19;;;17.83;71.32
163;BME280;3946;48.958;8.284;2023-05-20T07:57:49;100378.81;;;17.79;70.74
163;BME280;3946;48.958;8.284;2023-05-20T08:00:36;100372.66;;;17.98;71.00
163;BME280;3946;48.958;8.284;2023-05-20T08:03:26;100370.59;;;18.29;71.08
163;BME280;3946;48.958;8.284;2023-05-20T08:06:31;100379.31;;;17.92;71.26
163;BME280;3946;48.958;8.284;2023-05-20T08:09:18;100382.91;;;18.18;71.73
163;BME280;3946;48.958;8.284;2023-05-20T08:12:08;100335.47;;;18.93;69.06
163;BME280;3946;48.958;8.284;2023-05-20T08:14:54;100328.47;;;19.45;68.20
163;BME280;3946;48.958;8.284;2023-05-20T08:17:38;100310.09;;;19.79;66.86
163;BME280;3946;48.958;8.284;2023-05-20T08:20:25;100293.31;;;19.72;66.09
163;BME280;3946;48.958;8.284;2023-05-20T08:23:10;100321.63;;;19.26;67.56
163;BME280;3946;48.958;8.284;2023-05-20T08:25:56;100321.41;;;19.45;68.24
163;BME280;3946;48.958;8.284;2023-05-20T08:28:45;100298.28;;;19.83;66.62
163;BME280;3946;48.958;8.284;2023-05-20T08:31:32;100289.19;;;20.19;66.44
163;BME280;3946;48.958;8.284;2023-05-20T08:34:18;100283.47;;;19.82;66.17
163;BME280;3946;48.958;8.284;2023-05-20T08:37:05;100295.50;;;19.84;66.36
163;BME280;3946;48.958;8.284;2023-05-20T08:39:50;100286.16;;;19.90;66.11
163;BME280;3946;48.958;8.284;2023-05-20T08:42:39;100306.47;;;20.22;67.20
163;BME280;3946;48.958;8.284;2023-05-20T08:45:24;100301.78;;;20.00;66.91
163;BME280;3946;48.958;8.284;2023-05-20T08:48:14;100287.47;;;19.94;66.36
163;BME280;3946;48.958;8.284;2023-05-20T08:51:01;100318.16;;;19.51;68.16
163;BME280;3946;48.958;8.284;2023-05-20T08:53:48;100317.19;;;19.27;68.42
163;BME280;3946;48.958;8.284;2023-05-20T08:56:33;100331.19;;;19.35;69.28
163;BME280;3946;48.958;8.284;2023-05-20T08:59:19;100337.25;;;19.36;69.95
163;BME280;3946;48.958;8.284;2023-05-20T09:02:04;100311.13;;;19.34;69.33
163;BME280;3946;48.958;8.284;2023-05-20T09:04:49;100286.94;;;19.82;67.75
163;BME280;3946;48.958;8.284;2023-05-20T09:07:35;100282.31;;;20.26;67.38
163;BME280;3946;48.958;8.284;2023-05-20T09:10:21;100246.59;;;21.13;65.20
163;BME280;3946;48.958;8.284;2023-05-20T09:13:07;100238.34;;;21.16;64.00
163;BME280;3946;48.958;8.284;2023-05-20T09:15:52;100227.03;;;21.00;63.35
163;BME280;3946;48.958;8.284;2023-05-20T09:18:37;100186.66;;;21.23;60.72
163;BME280;3946;48.958;8.284;2023-05-20T09:21:24;100216.09;;;21.27;61.81
163;BME280;3946;48.958;8.284;2023-05-20T09:24:09;100223.84;;;21.12;61.83
163;BME280;3946;48.958;8.284;2023-05-20T09:26:55;100264.47;;;21.50;63.22
163;BME280;3946;48.958;8.284;2023-05-20T09:29:41;100219.81;;;21.57;61.39
163;BME280;3946;48.958;8.284;2023-05-20T09:32:26;100236.56;;;21.01;61.91
163;BME280;3946;48.958;8.284;2023-05-20T09:35:11;100267.84;;;20.95;63.16
163;BME280;3946;48.958;8.284;2023-05-20T09:37:57;100244.69;;;20.75;62.63
163;BME280;3946;48.958;8.284;2023-05-20T09:40:42;100266.22;;;20.62;63.68
163;BME280;3946;48.958;8.284;2023-05-20T09:43:30;100261.63;;;20.48;64.07
163;BME280;3946;48.958;8.284;2023-05-20T09:46:15;100248.00;;;20.60;63.42
163;BME280;3946;48.958;8.284;2023-05-20T09:49:00;100238.91;;;20.71;63.43
163;BME280;3946;48.958;8.284;2023-05-20T09:51:46;100216.16;;;21.03;62.62
163;BME280;3946;48.958;8.284;2023-05-20T09:54:31;100223.56;;;21.07;62.79
163;BME280;3946;48.958;8.284;2023-05-20T09:57:17;100204.47;;;20.97;61.28
163;BME280;3946;48.958;8.284;2023-05-20T10:00:04;100226.38;;;20.81;62.70
163;BME280;3946;48.958;8.284;2023-05-20T10:02:56;100240.88;;;20.85;63.08
163;BME280;3946;48.958;8.284;2023-05-20T10:05:42;100224.97;;;21.42;62.18
163;BME280;3946;48.958;8.284;2023-05-20T10:08:34;100209.75;;;21.52;61.81
163;BME280;3946;48.958;8.284;2023-05-20T10:11:25;100193.69;;;21.31;61.18
163;BME280;3946;48.958;8.284;2023-05-20T10:14:21;100182.09;;;21.48;60.50
163;BME280;3946;48.958;8.284;2023-05-20T10:17:12;100181.00;;;21.35;60.61
163;BME280;3946;48.958;8.284;2023-05-20T10:19:59;100178.28;;;21.82;59.83
163;BME280;3946;48.958;8.284;2023-05-20T10:22:53;100130.56;;;22.14;58.57
163;BME280;3946;48.958;8.284;2023-05-20T10:25:39;100144.59;;;22.15;58.76
163;BME280;3946;48.958;8.284;2023-05-20T10:28:34;100158.22;;;22.04;59.03
163;BME280;3946;48.958;8.284;2023-05-20T10:31:20;100147.66;;;22.04;59.36
163;BME280;3946;48.958;8.284;2023-05-20T10:34:13;100148.97;;;22.60;59.58
163;BME280;3946;48.958;8.284;2023-05-20T10:36:58;100114.56;;;22.97;58.23
163;BME280;3946;48.958;8.284;2023-05-20T10:39:44;100084.47;;;23.13;56.55
163;BME280;3946;48.958;8.284;2023-05-20T10:42:29;100101.31;;;23.27;56.87
163;BME280;3946;48.958;8.284;2023-05-20T10:45:23;100106.13;;;22.87;57.60
163;BME280;3946;48.958;8.284;2023-05-20T10:48:08;100102.41;;;23.32;57.40
163;BME280;3946;48.958;8.284;2023-05-20T10:51:09;100135.59;;;22.61;58.14
163;BME280;3946;48.958;8.284;2023-05-20T10:53:54;100125.94;;;22.68;58.23
163;BME280;3946;48.958;8.284;2023-05-20T10:56:49;100118.16;;;22.38;57.81
163;BME280;3946;48.958;8.284;2023-05-20T10:59:35;100117.38;;;23.11;58.05
163;BME280;3946;48.958;8.284;2023-05-20T11:02:20;100077.59;;;23.33;56.45
163;BME280;3946;48.958;8.284;2023-05-20T11:05:09;100104.34;;;23.09;56.23
163;BME280;3946;48.958;8.284;2023-05-20T11:08:00;100071.44;;;23.12;54.76
163;BME280;3946;48.958;8.284;2023-05-20T11:10:46;100065.84;;;23.57;53.94
163;BME280;3946;48.958;8.284;2023-05-20T11:13:32;100061.13;;;23.17;54.13
163;BME280;3946;48.958;8.284;2023-05-20T11:16:16;100072.88;;;23.29;54.71
163;BME280;3946;48.958;8.284;2023-05-20T11:19:02;100061.41;;;23.07;54.63
163;BME280;3946;48.958;8.284;2023-05-20T11:21:47;100092.88;;;23.17;55.68
163;BME280;3946;48.958;8.284;2023-05-20T11:24:34;100035.72;;;23.52;53.46
163;BME280;3946;48.958;8.284;2023-05-20T11:27:19;99995.81;;;24.30;52.30
163;BME280;3946;48.958;8.284;2023-05-20T11:30:04;100035.50;;;23.75;53.06
163;BME280;3946;48.958;8.284;2023-05-20T11:32:56;100084.50;;;22.98;55.12
163;BME280;3946;48.958;8.284;2023-05-20T11:35:43;100097.75;;;23.34;56.30
163;BME280;3946;48.958;8.284;2023-05-20T11:38:28;100065.56;;;23.31;55.07
163;BME280;3946;48.958;8.284;2023-05-20T11:41:15;100067.88;;;23.41;55.10
163;BME280;3946;48.958;8.284;2023-05-20T11:44:00;100039.31;;;23.51;54.09
163;BME280;3946;48.958;8.284;2023-05-20T11:46:45;100061.19;;;22.73;54.95
163;BME280;3946;48.958;8.284;2023-05-20T11:49:30;100068.56;;;22.77;54.93
163;BME280;3946;48.958;8.284;2023-05-20T11:52:22;100056.44;;;23.33;54.63
163;BME280;3946;48.958;8.284;2023-05-20T11:55:09;100020.41;;;23.68;53.32
163;BME280;3946;48.958;8.284;2023-05-20T11:57:55;100050.19;;;23.41;54.25
163;BME280;3946;48.958;8.284;2023-05-20T12:00:40;100079.84;;;23.51;55.61
163;BME280;3946;48.958;8.284;2023-05-20T12:03:25;100037.59;;;23.22;54.46
163;BME280;3946;48.958;8.284;2023-05-20T12:06:10;100064.38;;;22.97;54.98
163;BME280;3946;48.958;8.284;2023-05-20T12:08:57;100095.16;;;23.41;57.05
163;BME280;3946;48.958;8.284;2023-05-20T12:11:42;100041.22;;;23.35;54.56
163;BME280;3946;48.958;8.284;2023-05-20T12:14:29;100042.53;;;23.46;55.45
163;BME280;3946;48.958;8.284;2023-05-20T12:17:14;100032.44;;;23.99;53.98
163;BME280;3946;48.958;8.284;2023-05-20T12:19:59;100036.59;;;24.77;53.80
163;BME280;3946;48.958;8.284;2023-05-20T12:22:45;99963.69;;;24.94;51.23
163;BME280;3946;48.958;8.284;2023-05-20T12:25:30;99967.09;;;24.82;50.83
163;BME280;3946;48.958;8.284;2023-05-20T12:28:15;99985.47;;;24.83;51.38
163;BME280;3946;48.958;8.284;2023-05-20T12:31:02;99967.50;;;24.85;51.37
163;BME280;3946;48.958;8.284;2023-05-20T12:33:47;99970.88;;;24.59;51.30
163;BME280;3946;48.958;8.284;2023-05-20T12:36:32;99989.97;;;24.41;52.66
163;BME280;3946;48.958;8.284;2023-05-20T12:39:17;100034.50;;;24.03;54.33
163;BME280;3946;48.958;8.284;2023-05-20T12:42:04;100042.41;;;23.54;54.23
163;BME280;3946;48.958;8.284;2023-05-20T12:44:49;100024.75;;;23.40;54.08
163;BME280;3946;48.958;8.284;2023-05-20T12:47:37;100064.75;;;23.30;55.62
163;BME280;3946;48.958;8.284;2023-05-20T12:50:23;100051.84;;;23.21;55.02
163;BME280;3946;48.958;8.284;2023-05-20T12:53:08;100031.31;;;23.44;54.51
163;BME280;3946;48.958;8.284;2023-05-20T12:55:53;100027.81;;;23.22;54.71
163;BME280;3946;48.958;8.284;2023-05-20T12:58:39;100061.13;;;23.17;56.00
163;BME280;3946;48.958;8.284;2023-05-20T13:01:24;100035.22;;;23.48;54.92
163;BME280;3946;48.958;8.284;2023-05-20T13:04:10;100011.28;;;24.05;53.94
163;BME280;3946;48.958;8.284;2023-05-20T13:06:55;99993.63;;;24.40;53.51
163;BME280;3946;48.958;8.284;2023-05-20T13:09:40;99986.25;;;24.77;53.10
163;BME280;3946;48.958;8.284;2023-05-20T13:12:25;99996.16;;;24.62;52.30
163;BME280;3946;48.958;8.284;2023-05-20T13:15:10;100004.84;;;24.42;53.50
163;BME280;3946;48.958;8.284;2023-05-20T13:17:55;99995.22;;;24.76;53.18
163;BME280;3946;48.958;8.284;2023-05-20T13:20:42;99991.13;;;24.73;52.82
163;BME280;3946;48.958;8.284;2023-05-20T13:23:27;99983.34;;;24.65;53.19
163;BME280;3946;48.958;8.284;2023-05-20T13:26:12;100000.81;;;23.91;54.14
163;BME280;3946;48.958;8.284;2023-05-20T13:28:57;100022.88;;;24.04;55.13
163;BME280;3946;48.958;8.284;2023-05-20T13:31:42;100012.03;;;23.93;54.66
163;BME280;3946;48.958;8.284;2023-05-20T13:34:28;99986.22;;;24.29;54.10
163;BME280;3946;48.958;8.284;2023-05-20T13:37:14;99964.09;;;24.44;53.10
163;BME280;3946;48.958;8.284;2023-05-20T13:39:59;99947.03;;;24.18;52.41
163;BME280;3946;48.958;8.284;2023-05-20T13:42:44;99938.22;;;24.11;52.05
163;BME280;3946;48.958;8.284;2023-05-20T13:45:29;99959.63;;;24.44;52.75
163;BME280;3946;48.958;8.284;2023-05-20T13:48:14;99947.75;;;24.33;52.48
163;BME280;3946;48.958;8.284;2023-05-20T13:50:59;99950.25;;;24.14;52.67
163;BME280;3946;48.958;8.284;2023-05-20T13:53:46;99962.47;;;24.42;53.22
163;BME280;3946;48.958;8.284;2023-05-20T13:56:31;99921.44;;;24.25;52.18
163;BME280;3946;48.958;8.284;2023-05-20T13:59:16;99923.53;;;24.43;52.21
163;BME280;3946;48.958;8.284;2023-05-20T14:02:00;99922.94;;;24.06;52.37
163;BME280;3946;48.958;8.284;2023-05-20T14:04:45;99929.28;;;23.78;52.98
163;BME280;3946;48.958;8.284;2023-05-20T14:07:30;99927.38;;;23.99;52.79
163;BME280;3946;48.958;8.284;2023-05-20T14:10:17;99930.22;;;23.98;53.19
163;BME280;3946;48.958;8.284;2023-05-20T14:13:02;99934.31;;;24.07;53.38
163;BME280;3946;48.958;8.284;2023-05-20T14:15:47;99922.47;;;24.31;52.89
163;BME280;3946;48.958;8.284;2023-05-20T14:18:33;99928.16;;;24.28;52.92
163;BME280;3946;48.958;8.284;2023-05-20T14:21:18;99929.03;;;24.07;53.05
163;BME280;3946;48.958;8.284;2023-05-20T14:24:03;99940.19;;;23.96;53.27
163;BME280;3946;48.958;8.284;2023-05-20T14:26:50;99924.94;;;23.98;52.68
163;BME280;3946;48.958;8.284;2023-05-20T14:29:34;99924.06;;;23.91;52.82
163;BME280;3946;48.958;8.284;2023-05-20T14:32:19;99925.13;;;24.03;52.82
163;BME280;3946;48.958;8.284;2023-05-20T14:35:05;99932.41;;;23.60;53.58
163;BME280;3946;48.958;8.284;2023-05-20T14:37:50;99945.09;;;23.71;53.97
163;BME280;3946;48.958;8.284;2023-05-20T14:40:35;99926.44;;;23.79;53.20
163;BME280;3946;48.958;8.284;2023-05-20T14:43:21;99946.97;;;23.77;53.89
163;BME280;3946;48.958;8.284;2023-05-20T14:46:06;99947.06;;;23.62;54.34
163;BME280;3946;48.958;8.284;2023-05-20T14:48:51;99946.44;;;23.88;54.52
163;BME280;3946;48.958;8.284;2023-05-20T14:51:36;99946.28;;;23.96;54.75
163;BME280;3946;48.958;8.284;2023-05-20T14:54:21;99938.31;;;23.62;54.53
163;BME280;3946;48.958;8.284;2023-05-20T14:57:07;99933.78;;;23.84;54.14
163;BME280;3946;48.958;8.284;2023-05-20T14:59:53;99935.75;;;23.75;54.49
163;BME280;3946;48.958;8.284;2023-05-20T15:02:38;99950.09;;;23.87;54.53
163;BME280;3946;48.958;8.284;2023-05-20T15:05:24;99915.91;;;23.92;53.84